sensor_id;sensor_type;location;lat;lon;timestamp;P1;durP1;ratioP1;P2;durP2;ratioP2
57443;SDS011;43289;52.962;6.196;2022-10-15T00:01:56;63.47;;;35.97;;
57443;SDS011;43289;52.962;6.196;2022-10-15T00:04:22;48.83;;;31.42;;
57443;SDS011;43289;52.962;6.196;2022-10-15T00:06:48;66.70;;;36.95;;
57443;SDS011;43289;52.962;6.196;2022-10-15T00:09:14;67.95;;;34.65;;
57443;SDS011;43289;52.962;6.196;2022-10-15T00:11:40;69.28;;;37.70;;
57443;SDS011;43289;52.962;6.196;2022-10-15T00:14:06;62.30;;;36.33;;
57443;SDS011;43289;52.962;6.196;2022-10-15T00:16:32;67.15;;;36.53;;
57443;SDS011;43289;52.962;6.196;2022-10-15T00:18:59;62.10;;;33.85;;
57443;SDS011;43289;52.962;6.196;2022-10-15T00:21:25;56.20;;;31.73;;
57443;SDS011;43289;52.962;6.196;2022-10-15T00:23:51;57.28;;;33.13;;
57443;SDS011;43289;52.962;6.196;2022-10-15T00:26:19;92.68;;;39.25;;
57443;SDS011;43289;52.962;6.196;2022-10-15T00:28:45;55.63;;;31.55;;
57443;SDS011;43289;52.962;6.196;2022-10-15T00:31:14;54.13;;;32.38;;
57443;SDS011;43289;52.962;6.196;2022-10-15T00:33:41;50.05;;;29.65;;
57443;SDS011;43289;52.962;6.196;2022-10-15T00:36:09;53.30;;;32.28;;
57443;SDS011;43289;52.962;6.196;2022-10-15T00:38:36;66.63;;;35.13;;
57443;SDS011;43289;52.962;6.196;2022-10-15T00:41:02;54.88;;;32.55;;
57443;SDS011;43289;52.962;6.196;2022-10-15T00:46:01;66.93;;;33.72;;
57443;SDS011;43289;52.962;6.196;2022-10-15T00:48:27;55.25;;;33.17;;
57443;SDS011;43289;52.962;6.196;2022-10-15T00:50:55;71.93;;;34.15;;
57443;SDS011;43289;52.962;6.196;2022-10-15T00:53:21;61.65;;;33.38;;
57443;SDS011;43289;52.962;6.196;2022-10-15T00:55:50;51.45;;;30.13;;
57443;SDS011;43289;52.962;6.196;2022-10-15T00:58:19;59.85;;;31.02;;
57443;SDS011;43289;52.962;6.196;2022-10-15T01:00:51;67.93;;;32.58;;
57443;SDS011;43289;52.962;6.196;2022-10-15T01:03:18;48.00;;;30.10;;
57443;SDS011;43289;52.962;6.196;2022-10-15T01:05:44;50.65;;;29.50;;
57443;SDS011;43289;52.962;6.196;2022-10-15T01:08:12;57.47;;;32.03;;
57443;SDS011;43289;52.962;6.196;2022-10-15T01:13:39;61.40;;;30.98;;
57443;SDS011;43289;52.962;6.196;2022-10-15T01:16:13;56.72;;;30.33;;
57443;SDS011;43289;52.962;6.196;2022-10-15T01:18:48;64.25;;;35.28;;
57443;SDS011;43289;52.962;6.196;2022-10-15T01:21:15;66.80;;;34.40;;
57443;SDS011;43289;52.962;6.196;2022-10-15T01:26:38;63.47;;;34.50;;
57443;SDS011;43289;52.962;6.196;2022-10-15T01:37:12;53.38;;;31.50;;
57443;SDS011;43289;52.962;6.196;2022-10-15T01:39:44;57.83;;;29.25;;
57443;SDS011;43289;52.962;6.196;2022-10-15T01:42:26;55.25;;;30.80;;
57443;SDS011;43289;52.962;6.196;2022-10-15T01:44:56;58.80;;;32.90;;
57443;SDS011;43289;52.962;6.196;2022-10-15T01:47:34;53.03;;;31.58;;
57443;SDS011;43289;52.962;6.196;2022-10-15T01:50:02;41.17;;;27.00;;
57443;SDS011;43289;52.962;6.196;2022-10-15T01:52:31;56.00;;;30.38;;
57443;SDS011;43289;52.962;6.196;2022-10-15T01:54:58;51.78;;;33.08;;
57443;SDS011;43289;52.962;6.196;2022-10-15T01:57:30;50.95;;;30.85;;
57443;SDS011;43289;52.962;6.196;2022-10-15T01:59:57;56.55;;;33.05;;
57443;SDS011;43289;52.962;6.196;2022-10-15T02:02:23;56.53;;;32.40;;
57443;SDS011;43289;52.962;6.196;2022-10-15T02:04:49;52.15;;;31.80;;
57443;SDS011;43289;52.962;6.196;2022-10-15T02:10:09;54.08;;;31.90;;
57443;SDS011;43289;52.962;6.196;2022-10-15T02:15:16;60.38;;;33.05;;
57443;SDS011;43289;52.962;6.196;2022-10-15T02:20:19;60.03;;;33.75;;
57443;SDS011;43289;52.962;6.196;2022-10-15T02:22:49;51.58;;;31.42;;
57443;SDS011;43289;52.962;6.196;2022-10-15T02:25:20;59.75;;;31.38;;
57443;SDS011;43289;52.962;6.196;2022-10-15T02:27:47;52.50;;;30.85;;
57443;SDS011;43289;52.962;6.196;2022-10-15T02:30:13;75.45;;;32.70;;
57443;SDS011;43289;52.962;6.196;2022-10-15T02:32:40;55.25;;;31.27;;
57443;SDS011;43289;52.962;6.196;2022-10-15T02:35:07;47.72;;;29.63;;
57443;SDS011;43289;52.962;6.196;2022-10-15T02:37:34;65.93;;;32.38;;
57443;SDS011;43289;52.962;6.196;2022-10-15T02:40:01;58.55;;;30.75;;
57443;SDS011;43289;52.962;6.196;2022-10-15T02:42:27;48.60;;;30.40;;
57443;SDS011;43289;52.962;6.196;2022-10-15T02:44:53;50.08;;;28.65;;
57443;SDS011;43289;52.962;6.196;2022-10-15T02:47:19;61.60;;;31.23;;
57443;SDS011;43289;52.962;6.196;2022-10-15T02:49:45;47.78;;;28.50;;
57443;SDS011;43289;52.962;6.196;2022-10-15T02:52:11;48.90;;;29.38;;
57443;SDS011;43289;52.962;6.196;2022-10-15T02:54:37;51.95;;;29.88;;
57443;SDS011;43289;52.962;6.196;2022-10-15T02:57:03;67.82;;;33.95;;
57443;SDS011;43289;52.962;6.196;2022-10-15T02:59:30;54.33;;;31.05;;
57443;SDS011;43289;52.962;6.196;2022-10-15T03:01:56;65.43;;;34.53;;
57443;SDS011;43289;52.962;6.196;2022-10-15T03:04:22;86.25;;;38.17;;
57443;SDS011;43289;52.962;6.196;2022-10-15T03:06:48;60.63;;;32.00;;
57443;SDS011;43289;52.962;6.196;2022-10-15T03:09:14;62.15;;;33.60;;
57443;SDS011;43289;52.962;6.196;2022-10-15T03:11:41;59.05;;;32.13;;
57443;SDS011;43289;52.962;6.196;2022-10-15T03:14:07;52.83;;;27.73;;
57443;SDS011;43289;52.962;6.196;2022-10-15T03:16:33;64.32;;;32.67;;
57443;SDS011;43289;52.962;6.196;2022-10-15T03:18:59;60.35;;;33.22;;
57443;SDS011;43289;52.962;6.196;2022-10-15T03:21:25;57.28;;;31.13;;
57443;SDS011;43289;52.962;6.196;2022-10-15T03:23:54;55.17;;;30.52;;
57443;SDS011;43289;52.962;6.196;2022-10-15T03:26:20;63.45;;;34.17;;
57443;SDS011;43289;52.962;6.196;2022-10-15T03:28:46;70.70;;;35.25;;
57443;SDS011;43289;52.962;6.196;2022-10-15T03:31:13;59.47;;;30.88;;
57443;SDS011;43289;52.962;6.196;2022-10-15T03:33:39;57.33;;;32.00;;
57443;SDS011;43289;52.962;6.196;2022-10-15T03:36:05;112.22;;;42.58;;
57443;SDS011;43289;52.962;6.196;2022-10-15T03:38:32;61.75;;;30.80;;
57443;SDS011;43289;52.962;6.196;2022-10-15T03:40:58;66.53;;;33.70;;
57443;SDS011;43289;52.962;6.196;2022-10-15T03:43:24;101.03;;;39.90;;
57443;SDS011;43289;52.962;6.196;2022-10-15T03:45:50;72.40;;;35.80;;
57443;SDS011;43289;52.962;6.196;2022-10-15T03:48:16;60.50;;;31.45;;
57443;SDS011;43289;52.962;6.196;2022-10-15T03:50:44;79.75;;;35.25;;
57443;SDS011;43289;52.962;6.196;2022-10-15T03:53:10;64.00;;;30.83;;
57443;SDS011;43289;52.962;6.196;2022-10-15T03:55:36;76.70;;;36.35;;
57443;SDS011;43289;52.962;6.196;2022-10-15T03:58:06;67.60;;;32.70;;
57443;SDS011;43289;52.962;6.196;2022-10-15T04:00:32;69.75;;;32.78;;
57443;SDS011;43289;52.962;6.196;2022-10-15T04:02:58;62.78;;;29.80;;
57443;SDS011;43289;52.962;6.196;2022-10-15T04:05:24;61.35;;;31.55;;
57443;SDS011;43289;52.962;6.196;2022-10-15T04:07:50;57.55;;;30.92;;
57443;SDS011;43289;52.962;6.196;2022-10-15T04:10:18;56.38;;;30.75;;
57443;SDS011;43289;52.962;6.196;2022-10-15T04:12:44;69.40;;;34.05;;
57443;SDS011;43289;52.962;6.196;2022-10-15T04:15:11;78.53;;;35.83;;
57443;SDS011;43289;52.962;6.196;2022-10-15T04:17:37;67.63;;;32.28;;
57443;SDS011;43289;52.962;6.196;2022-10-15T04:20:03;79.65;;;35.75;;
57443;SDS011;43289;52.962;6.196;2022-10-15T04:22:33;77.35;;;36.13;;
57443;SDS011;43289;52.962;6.196;2022-10-15T04:24:59;71.38;;;34.78;;
57443;SDS011;43289;52.962;6.196;2022-10-15T04:27:26;95.85;;;39.72;;
57443;SDS011;43289;52.962;6.196;2022-10-15T04:29:52;64.25;;;32.15;;
57443;SDS011;43289;52.962;6.196;2022-10-15T04:32:18;90.60;;;40.75;;
57443;SDS011;43289;52.962;6.196;2022-10-15T04:34:45;72.65;;;34.33;;
57443;SDS011;43289;52.962;6.196;2022-10-15T04:37:11;70.20;;;37.70;;
57443;SDS011;43289;52.962;6.196;2022-10-15T04:39:37;86.35;;;41.72;;
57443;SDS011;43289;52.962;6.196;2022-10-15T04:42:03;87.80;;;42.67;;
57443;SDS011;43289;52.962;6.196;2022-10-15T04:44:29;102.63;;;47.63;;
57443;SDS011;43289;52.962;6.196;2022-10-15T04:46:55;73.10;;;39.00;;
57443;SDS011;43289;52.962;6.196;2022-10-15T04:49:21;71.13;;;38.25;;
57443;SDS011;43289;52.962;6.196;2022-10-15T04:51:47;79.05;;;42.58;;
57443;SDS011;43289;52.962;6.196;2022-10-15T04:54:13;105.63;;;48.28;;
57443;SDS011;43289;52.962;6.196;2022-10-15T04:56:39;78.93;;;41.08;;
57443;SDS011;43289;52.962;6.196;2022-10-15T04:59:05;101.88;;;45.95;;
57443;SDS011;43289;52.962;6.196;2022-10-15T05:01:32;106.88;;;47.25;;
57443;SDS011;43289;52.962;6.196;2022-10-15T05:03:58;82.65;;;43.53;;
57443;SDS011;43289;52.962;6.196;2022-10-15T05:06:24;101.32;;;46.13;;
57443;SDS011;43289;52.962;6.196;2022-10-15T05:08:51;132.90;;;53.20;;
57443;SDS011;43289;52.962;6.196;2022-10-15T05:11:21;110.60;;;49.67;;
57443;SDS011;43289;52.962;6.196;2022-10-15T05:13:47;122.60;;;53.20;;
57443;SDS011;43289;52.962;6.196;2022-10-15T05:16:14;121.97;;;49.95;;
57443;SDS011;43289;52.962;6.196;2022-10-15T05:18:41;117.75;;;50.95;;
57443;SDS011;43289;52.962;6.196;2022-10-15T05:21:08;97.88;;;49.20;;
57443;SDS011;43289;52.962;6.196;2022-10-15T05:23:35;85.05;;;42.95;;
57443;SDS011;43289;52.962;6.196;2022-10-15T05:26:02;91.18;;;47.33;;
57443;SDS011;43289;52.962;6.196;2022-10-15T05:28:29;131.63;;;54.75;;
57443;SDS011;43289;52.962;6.196;2022-10-15T05:30:56;129.13;;;53.97;;
57443;SDS011;43289;52.962;6.196;2022-10-15T05:33:22;114.40;;;51.25;;
57443;SDS011;43289;52.962;6.196;2022-10-15T05:35:48;110.80;;;48.83;;
57443;SDS011;43289;52.962;6.196;2022-10-15T05:38:14;115.05;;;51.97;;
57443;SDS011;43289;52.962;6.196;2022-10-15T05:40:40;151.60;;;57.22;;
57443;SDS011;43289;52.962;6.196;2022-10-15T05:43:06;121.72;;;54.35;;
57443;SDS011;43289;52.962;6.196;2022-10-15T05:45:34;127.25;;;55.50;;
57443;SDS011;43289;52.962;6.196;2022-10-15T05:48:00;99.88;;;47.65;;
57443;SDS011;43289;52.962;6.196;2022-10-15T05:50:26;78.72;;;41.67;;
57443;SDS011;43289;52.962;6.196;2022-10-15T05:52:53;105.30;;;51.20;;
57443;SDS011;43289;52.962;6.196;2022-10-15T05:55:19;130.63;;;53.78;;
57443;SDS011;43289;52.962;6.196;2022-10-15T05:57:49;135.68;;;56.13;;
57443;SDS011;43289;52.962;6.196;2022-10-15T06:00:15;114.25;;;50.40;;
57443;SDS011;43289;52.962;6.196;2022-10-15T06:02:41;139.93;;;56.22;;
57443;SDS011;43289;52.962;6.196;2022-10-15T06:05:13;82.90;;;41.60;;
57443;SDS011;43289;52.962;6.196;2022-10-15T06:07:39;78.68;;;43.10;;
57443;SDS011;43289;52.962;6.196;2022-10-15T06:10:05;103.13;;;45.10;;
57443;SDS011;43289;52.962;6.196;2022-10-15T06:12:31;131.75;;;51.70;;
57443;SDS011;43289;52.962;6.196;2022-10-15T06:14:58;100.95;;;48.15;;
57443;SDS011;43289;52.962;6.196;2022-10-15T06:17:24;112.47;;;50.10;;
57443;SDS011;43289;52.962;6.196;2022-10-15T06:19:50;98.35;;;47.40;;
57443;SDS011;43289;52.962;6.196;2022-10-15T06:22:16;93.57;;;44.55;;
57443;SDS011;43289;52.962;6.196;2022-10-15T06:24:42;109.32;;;50.10;;
57443;SDS011;43289;52.962;6.196;2022-10-15T06:27:12;124.25;;;51.88;;
57443;SDS011;43289;52.962;6.196;2022-10-15T06:29:38;112.63;;;50.63;;
57443;SDS011;43289;52.962;6.196;2022-10-15T06:32:07;117.43;;;51.00;;
57443;SDS011;43289;52.962;6.196;2022-10-15T06:34:34;110.03;;;48.83;;
57443;SDS011;43289;52.962;6.196;2022-10-15T06:37:00;115.28;;;47.30;;
57443;SDS011;43289;52.962;6.196;2022-10-15T06:39:26;100.35;;;47.55;;
57443;SDS011;43289;52.962;6.196;2022-10-15T06:41:52;99.72;;;49.22;;
57443;SDS011;43289;52.962;6.196;2022-10-15T06:44:18;115.43;;;49.70;;
57443;SDS011;43289;52.962;6.196;2022-10-15T06:46:44;123.57;;;50.70;;
57443;SDS011;43289;52.962;6.196;2022-10-15T06:49:10;82.03;;;44.42;;
57443;SDS011;43289;52.962;6.196;2022-10-15T06:51:36;118.63;;;50.63;;
57443;SDS011;43289;52.962;6.196;2022-10-15T06:54:02;115.65;;;48.72;;
57443;SDS011;43289;52.962;6.196;2022-10-15T06:56:28;93.15;;;45.95;;
57443;SDS011;43289;52.962;6.196;2022-10-15T06:58:54;103.78;;;48.72;;
57443;SDS011;43289;52.962;6.196;2022-10-15T07:03:49;102.13;;;49.65;;
57443;SDS011;43289;52.962;6.196;2022-10-15T07:06:15;97.93;;;49.05;;
57443;SDS011;43289;52.962;6.196;2022-10-15T07:08:42;92.47;;;47.33;;
57443;SDS011;43289;52.962;6.196;2022-10-15T07:11:09;88.53;;;45.25;;
57443;SDS011;43289;52.962;6.196;2022-10-15T07:13:35;113.72;;;52.47;;
57443;SDS011;43289;52.962;6.196;2022-10-15T07:16:05;116.93;;;51.08;;
57443;SDS011;43289;52.962;6.196;2022-10-15T07:18:32;128.60;;;53.75;;
57443;SDS011;43289;52.962;6.196;2022-10-15T07:20:58;99.18;;;47.28;;
57443;SDS011;43289;52.962;6.196;2022-10-15T07:23:25;120.40;;;51.72;;
57443;SDS011;43289;52.962;6.196;2022-10-15T07:25:51;110.68;;;46.60;;
57443;SDS011;43289;52.962;6.196;2022-10-15T07:28:17;106.22;;;49.60;;
57443;SDS011;43289;52.962;6.196;2022-10-15T07:30:43;107.45;;;49.53;;
57443;SDS011;43289;52.962;6.196;2022-10-15T07:33:09;100.00;;;50.08;;
57443;SDS011;43289;52.962;6.196;2022-10-15T07:35:36;83.10;;;42.90;;
57443;SDS011;43289;52.962;6.196;2022-10-15T07:38:02;107.97;;;50.33;;
57443;SDS011;43289;52.962;6.196;2022-10-15T07:40:28;109.85;;;48.33;;
57443;SDS011;43289;52.962;6.196;2022-10-15T07:42:57;95.10;;;44.72;;
57443;SDS011;43289;52.962;6.196;2022-10-15T07:45:24;93.25;;;46.05;;
57443;SDS011;43289;52.962;6.196;2022-10-15T07:47:51;110.65;;;51.13;;
57443;SDS011;43289;52.962;6.196;2022-10-15T07:50:17;89.93;;;45.88;;
57443;SDS011;43289;52.962;6.196;2022-10-15T07:52:44;92.30;;;46.60;;
57443;SDS011;43289;52.962;6.196;2022-10-15T07:55:10;96.45;;;46.78;;
57443;SDS011;43289;52.962;6.196;2022-10-15T07:57:36;83.60;;;45.65;;
57443;SDS011;43289;52.962;6.196;2022-10-15T08:00:04;86.53;;;45.60;;
57443;SDS011;43289;52.962;6.196;2022-10-15T08:02:30;89.15;;;45.33;;
57443;SDS011;43289;52.962;6.196;2022-10-15T08:05:03;88.15;;;44.35;;
57443;SDS011;43289;52.962;6.196;2022-10-15T08:07:29;97.63;;;45.85;;
57443;SDS011;43289;52.962;6.196;2022-10-15T08:09:55;94.53;;;47.13;;
57443;SDS011;43289;52.962;6.196;2022-10-15T08:12:21;92.75;;;44.72;;
57443;SDS011;43289;52.962;6.196;2022-10-15T08:14:47;103.18;;;46.83;;
57443;SDS011;43289;52.962;6.196;2022-10-15T08:17:13;98.53;;;47.67;;
57443;SDS011;43289;52.962;6.196;2022-10-15T08:19:41;92.97;;;44.55;;
57443;SDS011;43289;52.962;6.196;2022-10-15T08:22:07;94.03;;;46.30;;
57443;SDS011;43289;52.962;6.196;2022-10-15T08:27:08;96.35;;;45.70;;
57443;SDS011;43289;52.962;6.196;2022-10-15T08:29:34;74.72;;;38.25;;
57443;SDS011;43289;52.962;6.196;2022-10-15T08:32:00;79.03;;;40.53;;
57443;SDS011;43289;52.962;6.196;2022-10-15T08:34:26;90.35;;;45.33;;
57443;SDS011;43289;52.962;6.196;2022-10-15T08:36:52;71.65;;;38.17;;
57443;SDS011;43289;52.962;6.196;2022-10-15T08:39:18;88.72;;;47.05;;
57443;SDS011;43289;52.962;6.196;2022-10-15T08:41:48;87.65;;;42.40;;
57443;SDS011;43289;52.962;6.196;2022-10-15T08:44:20;90.05;;;44.33;;
57443;SDS011;43289;52.962;6.196;2022-10-15T08:46:49;95.70;;;45.85;;
57443;SDS011;43289;52.962;6.196;2022-10-15T08:50:00;119.38;;;49.47;;
57443;SDS011;43289;52.962;6.196;2022-10-15T08:52:11;110.30;;;48.05;;
57443;SDS011;43289;52.962;6.196;2022-10-15T08:54:40;76.90;;;41.55;;
57443;SDS011;43289;52.962;6.196;2022-10-15T08:59:54;83.65;;;41.58;;
57443;SDS011;43289;52.962;6.196;2022-10-15T09:03:10;73.20;;;38.22;;
57443;SDS011;43289;52.962;6.196;2022-10-15T09:07:53;65.53;;;33.03;;
57443;SDS011;43289;52.962;6.196;2022-10-15T09:10:23;59.78;;;33.63;;
57443;SDS011;43289;52.962;6.196;2022-10-15T09:13:00;65.10;;;33.30;;
57443;SDS011;43289;52.962;6.196;2022-10-15T09:15:27;64.65;;;32.72;;
57443;SDS011;43289;52.962;6.196;2022-10-15T09:17:57;58.30;;;31.60;;
57443;SDS011;43289;52.962;6.196;2022-10-15T09:20:31;67.70;;;34.05;;
57443;SDS011;43289;52.962;6.196;2022-10-15T09:22:57;64.38;;;33.10;;
57443;SDS011;43289;52.962;6.196;2022-10-15T09:25:24;66.28;;;33.65;;
57443;SDS011;43289;52.962;6.196;2022-10-15T09:27:50;56.75;;;29.70;;
57443;SDS011;43289;52.962;6.196;2022-10-15T09:30:29;59.05;;;31.92;;
57443;SDS011;43289;52.962;6.196;2022-10-15T09:32:59;59.10;;;31.05;;
57443;SDS011;43289;52.962;6.196;2022-10-15T09:40:28;54.38;;;30.05;;
57443;SDS011;43289;52.962;6.196;2022-10-15T09:42:57;61.45;;;31.42;;
57443;SDS011;43289;52.962;6.196;2022-10-15T09:45:25;62.90;;;33.63;;
57443;SDS011;43289;52.962;6.196;2022-10-15T09:47:51;58.83;;;30.50;;
57443;SDS011;43289;52.962;6.196;2022-10-15T09:50:21;57.78;;;30.77;;
57443;SDS011;43289;52.962;6.196;2022-10-15T09:55:39;57.42;;;30.15;;
57443;SDS011;43289;52.962;6.196;2022-10-15T09:58:05;57.70;;;29.40;;
57443;SDS011;43289;52.962;6.196;2022-10-15T10:00:50;52.20;;;27.67;;
57443;SDS011;43289;52.962;6.196;2022-10-15T10:03:17;51.22;;;25.92;;
57443;SDS011;43289;52.962;6.196;2022-10-15T10:05:43;46.88;;;26.48;;
57443;SDS011;43289;52.962;6.196;2022-10-15T10:08:15;46.13;;;27.17;;
57443;SDS011;43289;52.962;6.196;2022-10-15T10:10:52;41.10;;;25.02;;
57443;SDS011;43289;52.962;6.196;2022-10-15T10:13:22;32.42;;;19.67;;
57443;SDS011;43289;52.962;6.196;2022-10-15T10:15:50;34.75;;;19.42;;
57443;SDS011;43289;52.962;6.196;2022-10-15T10:18:17;37.60;;;19.63;;
57443;SDS011;43289;52.962;6.196;2022-10-15T10:20:56;30.50;;;17.55;;
57443;SDS011;43289;52.962;6.196;2022-10-15T10:23:27;23.38;;;15.75;;
57443;SDS011;43289;52.962;6.196;2022-10-15T10:25:55;28.60;;;18.27;;
57443;SDS011;43289;52.962;6.196;2022-10-15T10:28:32;29.92;;;17.13;;
57443;SDS011;43289;52.962;6.196;2022-10-15T10:31:00;23.23;;;14.40;;
57443;SDS011;43289;52.962;6.196;2022-10-15T10:33:33;22.70;;;14.18;;
57443;SDS011;43289;52.962;6.196;2022-10-15T10:35:59;20.60;;;13.52;;
57443;SDS011;43289;52.962;6.196;2022-10-15T10:38:30;18.58;;;12.95;;
57443;SDS011;43289;52.962;6.196;2022-10-15T10:40:58;23.15;;;13.60;;
57443;SDS011;43289;52.962;6.196;2022-10-15T10:43:29;19.13;;;13.20;;
57443;SDS011;43289;52.962;6.196;2022-10-15T10:48:24;17.27;;;12.13;;
57443;SDS011;43289;52.962;6.196;2022-10-15T10:51:04;17.08;;;12.00;;
57443;SDS011;43289;52.962;6.196;2022-10-15T10:53:31;18.48;;;12.77;;
57443;SDS011;43289;52.962;6.196;2022-10-15T10:55:58;17.60;;;10.90;;
57443;SDS011;43289;52.962;6.196;2022-10-15T10:58:26;21.52;;;13.52;;
57443;SDS011;43289;52.962;6.196;2022-10-15T11:00:54;17.75;;;11.55;;
57443;SDS011;43289;52.962;6.196;2022-10-15T11:03:28;18.60;;;11.93;;
57443;SDS011;43289;52.962;6.196;2022-10-15T11:23:36;19.33;;;12.32;;
57443;SDS011;43289;52.962;6.196;2022-10-15T11:34:03;18.88;;;13.18;;
57443;SDS011;43289;52.962;6.196;2022-10-15T11:44:25;20.95;;;12.93;;
57443;SDS011;43289;52.962;6.196;2022-10-15T11:47:16;19.55;;;13.85;;
57443;SDS011;43289;52.962;6.196;2022-10-15T11:49:57;20.95;;;13.40;;
57443;SDS011;43289;52.962;6.196;2022-10-15T11:52:39;21.23;;;14.27;;
57443;SDS011;43289;52.962;6.196;2022-10-15T11:55:13;20.35;;;14.73;;
57443;SDS011;43289;52.962;6.196;2022-10-15T11:57:43;21.35;;;14.40;;
57443;SDS011;43289;52.962;6.196;2022-10-15T12:02:37;26.73;;;13.82;;
57443;SDS011;43289;52.962;6.196;2022-10-15T12:07:33;22.73;;;13.32;;
57443;SDS011;43289;52.962;6.196;2022-10-15T12:13:06;20.02;;;13.90;;
57443;SDS011;43289;52.962;6.196;2022-10-15T12:16:02;19.75;;;13.32;;
57443;SDS011;43289;52.962;6.196;2022-10-15T12:20:57;25.25;;;15.55;;
57443;SDS011;43289;52.962;6.196;2022-10-15T12:23:44;28.35;;;16.90;;
57443;SDS011;43289;52.962;6.196;2022-10-15T12:26:25;25.20;;;15.73;;
57443;SDS011;43289;52.962;6.196;2022-10-15T12:28:53;23.25;;;15.50;;
57443;SDS011;43289;52.962;6.196;2022-10-15T12:31:19;23.92;;;15.40;;
57443;SDS011;43289;52.962;6.196;2022-10-15T12:33:47;23.10;;;15.57;;
57443;SDS011;43289;52.962;6.196;2022-10-15T12:38:55;22.88;;;15.43;;
57443;SDS011;43289;52.962;6.196;2022-10-15T12:41:21;19.75;;;14.38;;
57443;SDS011;43289;52.962;6.196;2022-10-15T12:46:54;23.63;;;15.23;;
57443;SDS011;43289;52.962;6.196;2022-10-15T12:51:56;22.60;;;14.48;;
57443;SDS011;43289;52.962;6.196;2022-10-15T12:56:59;41.95;;;18.67;;
57443;SDS011;43289;52.962;6.196;2022-10-15T12:59:29;28.15;;;16.27;;
57443;SDS011;43289;52.962;6.196;2022-10-15T13:01:56;25.30;;;15.95;;
57443;SDS011;43289;52.962;6.196;2022-10-15T13:04:22;26.27;;;14.20;;
57443;SDS011;43289;52.962;6.196;2022-10-15T13:06:48;24.08;;;14.55;;
57443;SDS011;43289;52.962;6.196;2022-10-15T13:09:20;22.13;;;14.93;;
57443;SDS011;43289;52.962;6.196;2022-10-15T13:11:50;22.65;;;13.10;;
57443;SDS011;43289;52.962;6.196;2022-10-15T13:14:18;21.73;;;13.85;;
57443;SDS011;43289;52.962;6.196;2022-10-15T13:16:50;25.80;;;13.95;;
57443;SDS011;43289;52.962;6.196;2022-10-15T13:19:20;23.20;;;12.93;;
57443;SDS011;43289;52.962;6.196;2022-10-15T13:22:03;25.52;;;14.98;;
57443;SDS011;43289;52.962;6.196;2022-10-15T13:24:38;28.05;;;14.55;;
57443;SDS011;43289;52.962;6.196;2022-10-15T13:27:12;23.95;;;13.65;;
57443;SDS011;43289;52.962;6.196;2022-10-15T13:29:38;17.85;;;11.65;;
57443;SDS011;43289;52.962;6.196;2022-10-15T13:32:07;25.52;;;14.10;;
57443;SDS011;43289;52.962;6.196;2022-10-15T13:34:41;20.27;;;11.93;;
57443;SDS011;43289;52.962;6.196;2022-10-15T13:37:12;20.10;;;11.88;;
57443;SDS011;43289;52.962;6.196;2022-10-15T13:39:40;31.77;;;14.13;;
57443;SDS011;43289;52.962;6.196;2022-10-15T13:42:13;20.45;;;12.60;;
57443;SDS011;43289;52.962;6.196;2022-10-15T13:44:40;20.08;;;12.00;;
57443;SDS011;43289;52.962;6.196;2022-10-15T13:47:23;20.67;;;12.07;;
57443;SDS011;43289;52.962;6.196;2022-10-15T13:49:50;20.17;;;12.05;;
57443;SDS011;43289;52.962;6.196;2022-10-15T13:52:16;19.65;;;10.90;;
57443;SDS011;43289;52.962;6.196;2022-10-15T13:54:45;24.02;;;12.55;;
57443;SDS011;43289;52.962;6.196;2022-10-15T13:57:13;20.67;;;12.05;;
57443;SDS011;43289;52.962;6.196;2022-10-15T13:59:42;22.67;;;12.40;;
57443;SDS011;43289;52.962;6.196;2022-10-15T14:02:10;21.85;;;12.55;;
57443;SDS011;43289;52.962;6.196;2022-10-15T14:04:36;22.27;;;12.27;;
57443;SDS011;43289;52.962;6.196;2022-10-15T14:07:20;13.07;;;8.45;;
57443;SDS011;43289;52.962;6.196;2022-10-15T14:09:46;17.95;;;8.90;;
57443;SDS011;43289;52.962;6.196;2022-10-15T14:12:12;16.10;;;9.18;;
57443;SDS011;43289;52.962;6.196;2022-10-15T14:14:43;14.55;;;8.30;;
57443;SDS011;43289;52.962;6.196;2022-10-15T14:19:45;18.48;;;7.68;;
57443;SDS011;43289;52.962;6.196;2022-10-15T14:22:18;13.45;;;7.35;;
57443;SDS011;43289;52.962;6.196;2022-10-15T14:24:46;12.98;;;6.93;;
57443;SDS011;43289;52.962;6.196;2022-10-15T14:27:15;11.63;;;7.50;;
57443;SDS011;43289;52.962;6.196;2022-10-15T14:29:42;15.25;;;8.07;;
57443;SDS011;43289;52.962;6.196;2022-10-15T14:34:48;12.20;;;6.93;;
57443;SDS011;43289;52.962;6.196;2022-10-15T14:42:42;12.00;;;7.43;;
57443;SDS011;43289;52.962;6.196;2022-10-15T14:45:18;8.57;;;5.45;;
57443;SDS011;43289;52.962;6.196;2022-10-15T14:50:14;7.55;;;4.93;;
57443;SDS011;43289;52.962;6.196;2022-10-15T14:52:42;9.15;;;5.35;;
57443;SDS011;43289;52.962;6.196;2022-10-15T14:55:28;9.38;;;5.03;;
57443;SDS011;43289;52.962;6.196;2022-10-15T14:57:58;8.43;;;4.68;;
57443;SDS011;43289;52.962;6.196;2022-10-15T15:00:26;8.02;;;5.55;;
57443;SDS011;43289;52.962;6.196;2022-10-15T15:02:54;9.02;;;4.78;;
57443;SDS011;43289;52.962;6.196;2022-10-15T15:05:25;9.18;;;5.22;;
57443;SDS011;43289;52.962;6.196;2022-10-15T15:07:51;7.15;;;4.85;;
57443;SDS011;43289;52.962;6.196;2022-10-15T15:10:18;8.65;;;4.95;;
57443;SDS011;43289;52.962;6.196;2022-10-15T15:12:48;8.38;;;4.82;;
57443;SDS011;43289;52.962;6.196;2022-10-15T15:15:15;6.78;;;4.70;;
57443;SDS011;43289;52.962;6.196;2022-10-15T15:17:43;6.97;;;4.57;;
57443;SDS011;43289;52.962;6.196;2022-10-15T15:20:09;8.52;;;5.03;;
57443;SDS011;43289;52.962;6.196;2022-10-15T15:22:36;8.15;;;4.82;;
57443;SDS011;43289;52.962;6.196;2022-10-15T15:25:27;8.05;;;4.88;;
57443;SDS011;43289;52.962;6.196;2022-10-15T15:27:51;8.43;;;5.00;;
57443;SDS011;43289;52.962;6.196;2022-10-15T15:30:18;6.85;;;4.68;;
57443;SDS011;43289;52.962;6.196;2022-10-15T15:32:44;8.35;;;4.50;;
57443;SDS011;43289;52.962;6.196;2022-10-15T15:37:39;7.00;;;4.13;;
57443;SDS011;43289;52.962;6.196;2022-10-15T15:40:06;7.93;;;4.80;;
57443;SDS011;43289;52.962;6.196;2022-10-15T15:42:32;7.95;;;4.63;;
57443;SDS011;43289;52.962;6.196;2022-10-15T15:44:59;7.20;;;4.15;;
57443;SDS011;43289;52.962;6.196;2022-10-15T15:47:26;7.30;;;4.10;;
57443;SDS011;43289;52.962;6.196;2022-10-15T15:49:52;7.82;;;5.45;;
57443;SDS011;43289;52.962;6.196;2022-10-15T15:52:18;6.85;;;4.97;;
57443;SDS011;43289;52.962;6.196;2022-10-15T15:54:44;7.45;;;5.25;;
57443;SDS011;43289;52.962;6.196;2022-10-15T15:57:11;9.25;;;4.82;;
57443;SDS011;43289;52.962;6.196;2022-10-15T15:59:37;6.70;;;4.82;;
57443;SDS011;43289;52.962;6.196;2022-10-15T16:02:03;7.30;;;4.57;;
57443;SDS011;43289;52.962;6.196;2022-10-15T16:04:29;8.45;;;5.93;;
57443;SDS011;43289;52.962;6.196;2022-10-15T16:06:55;7.15;;;5.25;;
57443;SDS011;43289;52.962;6.196;2022-10-15T16:09:22;7.03;;;5.13;;
57443;SDS011;43289;52.962;6.196;2022-10-15T16:11:49;15.48;;;11.77;;
57443;SDS011;43289;52.962;6.196;2022-10-15T16:14:16;8.05;;;6.18;;
57443;SDS011;43289;52.962;6.196;2022-10-15T16:16:42;9.88;;;5.65;;
57443;SDS011;43289;52.962;6.196;2022-10-15T16:19:08;7.72;;;5.22;;
57443;SDS011;43289;52.962;6.196;2022-10-15T16:21:35;9.05;;;5.22;;
57443;SDS011;43289;52.962;6.196;2022-10-15T16:24:01;8.60;;;4.72;;
57443;SDS011;43289;52.962;6.196;2022-10-15T16:26:27;8.23;;;6.07;;